sensor_id;sensor_type;location;lat;lon;timestamp;temperature;humidity
15111;DHT22;7656;51.954;7.998;2023-03-14T00:01:13;12.50;99.90
15111;DHT22;7656;51.954;7.998;2023-03-14T00:05:35;12.50;99.90
15111;DHT22;7656;51.954;7.998;2023-03-14T00:09:57;12.40;99.90
15111;DHT22;7656;51.954;7.998;2023-03-14T00:14:18;12.50;99.90
15111;DHT22;7656;51.954;7.998;2023-03-14T00:18:39;12.40;99.90
15111;DHT22;7656;51.954;7.998;2023-03-14T00:23:00;12.50;99.90
15111;DHT22;7656;51.954;7.998;2023-03-14T00:27:23;12.50;99.90
15111;DHT22;7656;51.954;7.998;2023-03-14T00:31:44;12.40;99.90
15111;DHT22;7656;51.954;7.998;2023-03-14T00:36:11;12.40;99.90
15111;DHT22;7656;51.954;7.998;2023-03-14T00:40:34;12.20;99.90
15111;DHT22;7656;51.954;7.998;2023-03-14T00:44:55;12.10;99.90
15111;DHT22;7656;51.954;7.998;2023-03-14T00:49:16;12.10;99.90
15111;DHT22;7656;51.954;7.998;2023-03-14T00:53:38;12.00;99.90
15111;DHT22;7656;51.954;7.998;2023-03-14T00:58:00;11.60;99.90
15111;DHT22;7656;51.954;7.998;2023-03-14T01:02:21;11.40;99.90
15111;DHT22;7656;51.954;7.998;2023-03-14T01:06:43;11.50;99.90
15111;DHT22;7656;51.954;7.998;2023-03-14T01:11:07;11.50;99.90
15111;DHT22;7656;51.954;7.998;2023-03-14T01:15:29;11.50;99.90
15111;DHT22;7656;51.954;7.998;2023-03-14T01:19:50;11.70;99.90
15111;DHT22;7656;51.954;7.998;2023-03-14T01:24:12;11.70;99.90
15111;DHT22;7656;51.954;7.998;2023-03-14T01:28:33;11.60;99.90
15111;DHT22;7656;51.954;7.998;2023-03-14T01:32:55;11.50;99.90
15111;DHT22;7656;51.954;7.998;2023-03-14T01:37:17;11.70;99.90
15111;DHT22;7656;51.954;7.998;2023-03-14T01:41:39;11.80;99.90
15111;DHT22;7656;51.954;7.998;2023-03-14T01:50:34;11.80;99.90
15111;DHT22;7656;51.954;7.998;2023-03-14T01:55:07;11.90;99.90
15111;DHT22;7656;51.954;7.998;2023-03-14T01:59:33;12.00;99.90
15111;DHT22;7656;51.954;7.998;2023-03-14T02:03:59;12.20;99.90
15111;DHT22;7656;51.954;7.998;2023-03-14T02:08:22;11.80;99.90
15111;DHT22;7656;51.954;7.998;2023-03-14T02:12:49;11.30;99.90
15111;DHT22;7656;51.954;7.998;2023-03-14T02:17:24;10.90;99.90
15111;DHT22;7656;51.954;7.998;2023-03-14T02:22:07;10.60;99.90
15111;DHT22;7656;51.954;7.998;2023-03-14T02:31:29;10.70;99.90
15111;DHT22;7656;51.954;7.998;2023-03-14T02:35:59;10.80;99.90
15111;DHT22;7656;51.954;7.998;2023-03-14T02:40:23;10.70;99.90
15111;DHT22;7656;51.954;7.998;2023-03-14T02:49:34;10.80;99.90
15111;DHT22;7656;51.954;7.998;2023-03-14T02:53:55;10.50;99.90
15111;DHT22;7656;51.954;7.998;2023-03-14T02:58:19;10.30;99.90
15111;DHT22;7656;51.954;7.998;2023-03-14T03:02:44;10.20;99.90
15111;DHT22;7656;51.954;7.998;2023-03-14T03:07:05;10.10;99.90
15111;DHT22;7656;51.954;7.998;2023-03-14T03:11:26;10.20;99.90
15111;DHT22;7656;51.954;7.998;2023-03-14T03:15:48;10.20;99.90
15111;DHT22;7656;51.954;7.998;2023-03-14T03:20:09;10.30;99.90
15111;DHT22;7656;51.954;7.998;2023-03-14T03:24:33;10.20;99.90
15111;DHT22;7656;51.954;7.998;2023-03-14T03:28:56;10.30;99.90
15111;DHT22;7656;51.954;7.998;2023-03-14T03:33:18;10.50;99.90
15111;DHT22;7656;51.954;7.998;2023-03-14T03:37:40;10.30;99.90
15111;DHT22;7656;51.954;7.998;2023-03-14T03:42:01;10.40;99.90
15111;DHT22;7656;51.954;7.998;2023-03-14T03:46:23;10.40;99.90
15111;DHT22;7656;51.954;7.998;2023-03-14T03:50:46;10.40;99.90
15111;DHT22;7656;51.954;7.998;2023-03-14T03:55:10;10.30;99.90
15111;DHT22;7656;51.954;7.998;2023-03-14T03:59:31;10.20;99.90
15111;DHT22;7656;51.954;7.998;2023-03-14T04:03:52;10.10;99.90
15111;DHT22;7656;51.954;7.998;2023-03-14T04:08:14;10.40;99.90
15111;DHT22;7656;51.954;7.998;2023-03-14T04:12:35;10.70;99.90
15111;DHT22;7656;51.954;7.998;2023-03-14T04:17:04;10.40;99.90
15111;DHT22;7656;51.954;7.998;2023-03-14T04:21:25;10.50;99.90
15111;DHT22;7656;51.954;7.998;2023-03-14T04:25:51;10.60;99.90
15111;DHT22;7656;51.954;7.998;2023-03-14T04:30:14;10.50;99.90
15111;DHT22;7656;51.954;7.998;2023-03-14T04:34:57;10.40;99.90
15111;DHT22;7656;51.954;7.998;2023-03-14T04:39:18;10.30;99.90
15111;DHT22;7656;51.954;7.998;2023-03-14T04:43:47;10.20;99.90
15111;DHT22;7656;51.954;7.998;2023-03-14T04:48:09;10.20;99.90
15111;DHT22;7656;51.954;7.998;2023-03-14T04:52:30;10.30;99.90
15111;DHT22;7656;51.954;7.998;2023-03-14T04:56:52;10.40;99.90
15111;DHT22;7656;51.954;7.998;2023-03-14T05:01:14;10.30;99.90
15111;DHT22;7656;51.954;7.998;2023-03-14T05:05:54;10.30;99.90
15111;DHT22;7656;51.954;7.998;2023-03-14T05:10:38;10.40;99.90
15111;DHT22;7656;51.954;7.998;2023-03-14T05:15:08;10.60;99.90
15111;DHT22;7656;51.954;7.998;2023-03-14T05:19:42;10.50;99.90
15111;DHT22;7656;51.954;7.998;2023-03-14T05:24:10;10.50;99.90
15111;DHT22;7656;51.954;7.998;2023-03-14T05:29:00;10.50;99.90
15111;DHT22;7656;51.954;7.998;2023-03-14T05:33:35;10.60;99.90
15111;DHT22;7656;51.954;7.998;2023-03-14T05:38:06;10.50;99.90
15111;DHT22;7656;51.954;7.998;2023-03-14T05:42:54;10.60;99.90
15111;DHT22;7656;51.954;7.998;2023-03-14T05:47:35;10.40;99.90
15111;DHT22;7656;51.954;7.998;2023-03-14T05:52:28;10.40;99.90
15111;DHT22;7656;51.954;7.998;2023-03-14T05:57:08;10.20;99.90
15111;DHT22;7656;51.954;7.998;2023-03-14T06:01:41;10.10;99.90
15111;DHT22;7656;51.954;7.998;2023-03-14T06:06:08;10.10;99.90
15111;DHT22;7656;51.954;7.998;2023-03-14T06:10:30;10.00;99.90
15111;DHT22;7656;51.954;7.998;2023-03-14T06:14:51;10.00;99.90
15111;DHT22;7656;51.954;7.998;2023-03-14T06:19:12;9.80;99.90
15111;DHT22;7656;51.954;7.998;2023-03-14T06:23:35;9.90;99.90
15111;DHT22;7656;51.954;7.998;2023-03-14T06:27:57;9.90;99.90
15111;DHT22;7656;51.954;7.998;2023-03-14T06:32:19;10.00;99.90
15111;DHT22;7656;51.954;7.998;2023-03-14T06:36:42;10.10;99.90
15111;DHT22;7656;51.954;7.998;2023-03-14T06:41:05;10.20;99.90
15111;DHT22;7656;51.954;7.998;2023-03-14T06:45:32;10.30;99.90
15111;DHT22;7656;51.954;7.998;2023-03-14T06:49:55;10.40;99.90
15111;DHT22;7656;51.954;7.998;2023-03-14T06:54:17;10.40;99.90
15111;DHT22;7656;51.954;7.998;2023-03-14T06:58:38;10.40;99.90
15111;DHT22;7656;51.954;7.998;2023-03-14T07:03:02;10.30;99.90
15111;DHT22;7656;51.954;7.998;2023-03-14T07:07:27;10.20;99.90
15111;DHT22;7656;51.954;7.998;2023-03-14T07:11:48;10.20;99.90
15111;DHT22;7656;51.954;7.998;2023-03-14T07:16:11;10.30;99.90
15111;DHT22;7656;51.954;7.998;2023-03-14T07:20:32;10.60;99.90
15111;DHT22;7656;51.954;7.998;2023-03-14T07:24:54;10.50;99.90
15111;DHT22;7656;51.954;7.998;2023-03-14T07:29:19;10.60;99.90
15111;DHT22;7656;51.954;7.998;2023-03-14T07:33:41;10.60;99.90
15111;DHT22;7656;51.954;7.998;2023-03-14T07:38:02;10.50;99.90
15111;DHT22;7656;51.954;7.998;2023-03-14T07:42:30;10.00;99.90
15111;DHT22;7656;51.954;7.998;2023-03-14T07:47:10;10.20;99.90
15111;DHT22;7656;51.954;7.998;2023-03-14T07:51:31;10.30;99.90
15111;DHT22;7656;51.954;7.998;2023-03-14T07:55:53;10.40;99.90
15111;DHT22;7656;51.954;7.998;2023-03-14T08:00:15;10.40;99.90
15111;DHT22;7656;51.954;7.998;2023-03-14T08:04:36;10.20;99.90
15111;DHT22;7656;51.954;7.998;2023-03-14T08:08:57;10.40;99.90
15111;DHT22;7656;51.954;7.998;2023-03-14T08:13:18;10.50;99.90
15111;DHT22;7656;51.954;7.998;2023-03-14T08:17:40;10.30;99.90
15111;DHT22;7656;51.954;7.998;2023-03-14T08:22:01;10.60;99.90
15111;DHT22;7656;51.954;7.998;2023-03-14T08:26:22;10.70;99.90
15111;DHT22;7656;51.954;7.998;2023-03-14T08:30:43;11.10;99.90
15111;DHT22;7656;51.954;7.998;2023-03-14T08:35:05;11.40;99.90
15111;DHT22;7656;51.954;7.998;2023-03-14T08:39:26;11.20;99.90
15111;DHT22;7656;51.954;7.998;2023-03-14T08:43:47;11.30;99.90
15111;DHT22;7656;51.954;7.998;2023-03-14T08:48:08;11.50;99.90
15111;DHT22;7656;51.954;7.998;2023-03-14T08:52:30;11.60;99.90
15111;DHT22;7656;51.954;7.998;2023-03-14T08:56:51;11.50;99.90
15111;DHT22;7656;51.954;7.998;2023-03-14T09:01:12;11.80;99.90
15111;DHT22;7656;51.954;7.998;2023-03-14T09:05:34;11.60;99.90
15111;DHT22;7656;51.954;7.998;2023-03-14T09:09:55;11.70;99.90
15111;DHT22;7656;51.954;7.998;2023-03-14T09:14:16;11.80;99.90
15111;DHT22;7656;51.954;7.998;2023-03-14T09:18:37;11.80;99.90
15111;DHT22;7656;51.954;7.998;2023-03-14T09:22:58;12.20;99.90
15111;DHT22;7656;51.954;7.998;2023-03-14T09:27:19;12.30;99.90
15111;DHT22;7656;51.954;7.998;2023-03-14T09:31:40;12.50;99.90
15111;DHT22;7656;51.954;7.998;2023-03-14T09:36:01;12.40;99.90
15111;DHT22;7656;51.954;7.998;2023-03-14T09:40:23;12.80;99.90
15111;DHT22;7656;51.954;7.998;2023-03-14T09:44:57;13.00;99.90
15111;DHT22;7656;51.954;7.998;2023-03-14T10:04:57;13.00;99.90
15111;DHT22;7656;51.954;7.998;2023-03-14T10:09:23;12.90;99.90
15111;DHT22;7656;51.954;7.998;2023-03-14T10:14:08;12.30;99.90
15111;DHT22;7656;51.954;7.998;2023-03-14T10:18:34;11.00;99.90
15111;DHT22;7656;51.954;7.998;2023-03-14T10:22:55;10.60;99.90
15111;DHT22;7656;51.954;7.998;2023-03-14T10:27:22;10.30;99.90
15111;DHT22;7656;51.954;7.998;2023-03-14T10:32:00;10.40;99.90
15111;DHT22;7656;51.954;7.998;2023-03-14T10:36:27;10.10;99.90
15111;DHT22;7656;51.954;7.998;2023-03-14T10:40:51;10.00;99.90
15111;DHT22;7656;51.954;7.998;2023-03-14T10:45:38;9.50;99.90
15111;DHT22;7656;51.954;7.998;2023-03-14T10:55:11;8.00;99.90
15111;DHT22;7656;51.954;7.998;2023-03-14T10:59:39;7.50;99.90
15111;DHT22;7656;51.954;7.998;2023-03-14T11:14:34;6.90;99.90
15111;DHT22;7656;51.954;7.998;2023-03-14T11:19:13;6.90;99.90
15111;DHT22;7656;51.954;7.998;2023-03-14T11:28:46;7.00;99.90
15111;DHT22;7656;51.954;7.998;2023-03-14T11:33:15;6.60;99.90
15111;DHT22;7656;51.954;7.998;2023-03-14T11:37:51;6.30;99.90
15111;DHT22;7656;51.954;7.998;2023-03-14T11:42:16;6.20;99.90
15111;DHT22;7656;51.954;7.998;2023-03-14T11:46:42;6.30;99.90
15111;DHT22;7656;51.954;7.998;2023-03-14T11:51:23;6.50;99.90
15111;DHT22;7656;51.954;7.998;2023-03-14T11:55:45;6.90;99.90
15111;DHT22;7656;51.954;7.998;2023-03-14T12:04:50;7.00;99.90
15111;DHT22;7656;51.954;7.998;2023-03-14T12:09:22;7.20;99.90
15111;DHT22;7656;51.954;7.998;2023-03-14T12:13:47;7.30;99.90
15111;DHT22;7656;51.954;7.998;2023-03-14T12:18:30;7.30;99.90
15111;DHT22;7656;51.954;7.998;2023-03-14T12:23:01;7.40;99.90
15111;DHT22;7656;51.954;7.998;2023-03-14T12:32:23;7.60;99.90
15111;DHT22;7656;51.954;7.998;2023-03-14T12:41:23;7.50;99.90
15111;DHT22;7656;51.954;7.998;2023-03-14T12:50:42;7.60;99.90
15111;DHT22;7656;51.954;7.998;2023-03-14T12:55:13;7.50;99.90
15111;DHT22;7656;51.954;7.998;2023-03-14T12:59:51;7.40;99.90
15111;DHT22;7656;51.954;7.998;2023-03-14T13:04:13;7.40;99.90
15111;DHT22;7656;51.954;7.998;2023-03-14T13:08:43;7.40;99.90
15111;DHT22;7656;51.954;7.998;2023-03-14T13:13:23;7.30;99.90
15111;DHT22;7656;51.954;7.998;2023-03-14T13:17:49;7.10;99.90
15111;DHT22;7656;51.954;7.998;2023-03-14T13:22:24;7.10;99.90
15111;DHT22;7656;51.954;7.998;2023-03-14T13:26:48;7.10;99.90
15111;DHT22;7656;51.954;7.998;2023-03-14T13:31:20;7.40;99.90
15111;DHT22;7656;51.954;7.998;2023-03-14T13:36:00;7.40;99.90
15111;DHT22;7656;51.954;7.998;2023-03-14T13:40:34;7.70;99.90
15111;DHT22;7656;51.954;7.998;2023-03-14T13:44:56;7.80;99.90
15111;DHT22;7656;51.954;7.998;2023-03-14T13:49:22;8.20;99.90
15111;DHT22;7656;51.954;7.998;2023-03-14T13:53:49;8.50;99.90
15111;DHT22;7656;51.954;7.998;2023-03-14T13:58:26;8.20;99.90
15111;DHT22;7656;51.954;7.998;2023-03-14T14:02:48;8.30;99.90
15111;DHT22;7656;51.954;7.998;2023-03-14T14:07:15;8.30;99.90
15111;DHT22;7656;51.954;7.998;2023-03-14T14:11:43;8.60;99.90
15111;DHT22;7656;51.954;7.998;2023-03-14T14:16:08;8.40;99.90
15111;DHT22;7656;51.954;7.998;2023-03-14T14:20:38;8.20;99.90
15111;DHT22;7656;51.954;7.998;2023-03-14T14:25:03;7.80;99.90
15111;DHT22;7656;51.954;7.998;2023-03-14T14:29:30;7.80;99.90
15111;DHT22;7656;51.954;7.998;2023-03-14T14:33:55;8.60;99.90
15111;DHT22;7656;51.954;7.998;2023-03-14T14:38:20;9.00;99.90
15111;DHT22;7656;51.954;7.998;2023-03-14T14:42:42;9.80;99.90
15111;DHT22;7656;51.954;7.998;2023-03-14T14:47:04;9.20;99.90
15111;DHT22;7656;51.954;7.998;2023-03-14T14:51:31;8.90;99.90
15111;DHT22;7656;51.954;7.998;2023-03-14T14:55:59;9.10;99.90
15111;DHT22;7656;51.954;7.998;2023-03-14T15:00:26;9.50;99.90
15111;DHT22;7656;51.954;7.998;2023-03-14T15:04:48;9.40;99.90
15111;DHT22;7656;51.954;7.998;2023-03-14T15:09:10;9.40;99.90
15111;DHT22;7656;51.954;7.998;2023-03-14T15:13:32;9.50;99.90
15111;DHT22;7656;51.954;7.998;2023-03-14T15:17:53;10.00;99.90
15111;DHT22;7656;51.954;7.998;2023-03-14T15:22:14;10.10;99.90
15111;DHT22;7656;51.954;7.998;2023-03-14T15:26:35;10.10;99.90
15111;DHT22;7656;51.954;7.998;2023-03-14T15:30:58;9.60;99.90
15111;DHT22;7656;51.954;7.998;2023-03-14T15:35:19;9.20;99.90
15111;DHT22;7656;51.954;7.998;2023-03-14T15:39:40;8.70;99.90
15111;DHT22;7656;51.954;7.998;2023-03-14T15:44:04;9.10;99.90
15111;DHT22;7656;51.954;7.998;2023-03-14T15:48:25;9.60;99.90
15111;DHT22;7656;51.954;7.998;2023-03-14T15:52:46;9.50;99.90
15111;DHT22;7656;51.954;7.998;2023-03-14T15:57:10;9.10;99.90
15111;DHT22;7656;51.954;7.998;2023-03-14T16:01:31;8.80;99.90
15111;DHT22;7656;51.954;7.998;2023-03-14T16:05:52;8.60;99.90
15111;DHT22;7656;51.954;7.998;2023-03-14T16:10:15;8.40;99.90
15111;DHT22;7656;51.954;7.998;2023-03-14T16:14:36;8.10;99.90
15111;DHT22;7656;51.954;7.998;2023-03-14T16:18:57;7.80;99.90
15111;DHT22;7656;51.954;7.998;2023-03-14T16:23:18;7.70;99.90
15111;DHT22;7656;51.954;7.998;2023-03-14T16:27:40;7.60;99.90
15111;DHT22;7656;51.954;7.998;2023-03-14T16:32:02;7.40;99.90
15111;DHT22;7656;51.954;7.998;2023-03-14T16:36:24;7.50;99.90
15111;DHT22;7656;51.954;7.998;2023-03-14T16:40:58;7.60;99.90
15111;DHT22;7656;51.954;7.998;2023-03-14T16:45:20;7.50;99.90
15111;DHT22;7656;51.954;7.998;2023-03-14T16:49:41;7.40;99.90
15111;DHT22;7656;51.954;7.998;2023-03-14T16:54:02;7.30;99.90
15111;DHT22;7656;51.954;7.998;2023-03-14T16:58:24;7.10;99.90
15111;DHT22;7656;51.954;7.998;2023-03-14T17:02:45;6.80;99.90
15111;DHT22;7656;51.954;7.998;2023-03-14T17:07:06;6.70;99.90
15111;DHT22;7656;51.954;7.998;2023-03-14T17:11:28;6.50;99.90
15111;DHT22;7656;51.954;7.998;2023-03-14T17:15:55;6.40;99.90
15111;DHT22;7656;51.954;7.998;2023-03-14T17:20:17;6.60;99.90
15111;DHT22;7656;51.954;7.998;2023-03-14T17:24:38;6.50;99.90
15111;DHT22;7656;51.954;7.998;2023-03-14T17:29:00;6.60;99.90
15111;DHT22;7656;51.954;7.998;2023-03-14T17:33:21;6.70;99.90
15111;DHT22;7656;51.954;7.998;2023-03-14T17:37:42;6.40;99.90
15111;DHT22;7656;51.954;7.998;2023-03-14T17:42:03;6.30;99.90
15111;DHT22;7656;51.954;7.998;2023-03-14T17:46:25;6.30;99.90
15111;DHT22;7656;51.954;7.998;2023-03-14T17:50:46;6.40;99.90
15111;DHT22;7656;51.954;7.998;2023-03-14T17:55:08;6.40;99.90
15111;DHT22;7656;51.954;7.998;2023-03-14T17:59:29;6.40;99.90
15111;DHT22;7656;51.954;7.998;2023-03-14T18:03:51;6.50;99.90
15111;DHT22;7656;51.954;7.998;2023-03-14T18:08:16;6.40;99.90
15111;DHT22;7656;51.954;7.998;2023-03-14T18:12:37;6.30;99.90
15111;DHT22;7656;51.954;7.998;2023-03-14T18:16:59;6.40;99.90
15111;DHT22;7656;51.954;7.998;2023-03-14T18:21:20;6.30;99.90
15111;DHT22;7656;51.954;7.998;2023-03-14T18:25:41;6.40;99.90
15111;DHT22;7656;51.954;7.998;2023-03-14T18:30:03;6.30;99.90
15111;DHT22;7656;51.954;7.998;2023-03-14T18:34:25;6.30;99.90
15111;DHT22;7656;51.954;7.998;2023-03-14T18:38:46;6.40;99.90
15111;DHT22;7656;51.954;7.998;2023-03-14T18:43:10;5.90;99.90
15111;DHT22;7656;51.954;7.998;2023-03-14T18:47:31;5.90;99.90
15111;DHT22;7656;51.954;7.998;2023-03-14T18:51:55;5.80;99.90
15111;DHT22;7656;51.954;7.998;2023-03-14T18:56:17;5.70;99.90
15111;DHT22;7656;51.954;7.998;2023-03-14T19:00:38;5.70;99.90
15111;DHT22;7656;51.954;7.998;2023-03-14T19:05:01;5.90;99.90
15111;DHT22;7656;51.954;7.998;2023-03-14T19:09:22;5.90;99.90
15111;DHT22;7656;51.954;7.998;2023-03-14T19:13:43;6.00;99.90
15111;DHT22;7656;51.954;7.998;2023-03-14T19:18:04;6.00;99.90
15111;DHT22;7656;51.954;7.998;2023-03-14T19:22:28;6.10;99.90
15111;DHT22;7656;51.954;7.998;2023-03-14T19:26:52;6.00;99.90
15111;DHT22;7656;51.954;7.998;2023-03-14T19:31:13;6.10;99.90
15111;DHT22;7656;51.954;7.998;2023-03-14T19:35:34;6.10;99.90
15111;DHT22;7656;51.954;7.998;2023-03-14T19:39:55;6.10;99.90
15111;DHT22;7656;51.954;7.998;2023-03-14T19:44:16;6.10;99.90
15111;DHT22;7656;51.954;7.998;2023-03-14T19:48:37;6.10;99.90
15111;DHT22;7656;51.954;7.998;2023-03-14T19:52:58;5.90;99.90
15111;DHT22;7656;51.954;7.998;2023-03-14T19:57:19;5.90;99.90
15111;DHT22;7656;51.954;7.998;2023-03-14T20:01:40;5.90;99.90
15111;DHT22;7656;51.954;7.998;2023-03-14T20:06:09;5.90;99.90
15111;DHT22;7656;51.954;7.998;2023-03-14T20:10:34;5.80;99.90
15111;DHT22;7656;51.954;7.998;2023-03-14T20:14:55;5.90;99.90
15111;DHT22;7656;51.954;7.998;2023-03-14T20:19:16;5.90;99.90
15111;DHT22;7656;51.954;7.998;2023-03-14T20:23:38;5.90;99.90
15111;DHT22;7656;51.954;7.998;2023-03-14T20:27:59;5.90;99.90
15111;DHT22;7656;51.954;7.998;2023-03-14T20:32:21;5.90;99.90
15111;DHT22;7656;51.954;7.998;2023-03-14T20:36:42;6.00;99.90
15111;DHT22;7656;51.954;7.998;2023-03-14T20:41:05;6.00;99.90
15111;DHT22;7656;51.954;7.998;2023-03-14T20:45:27;6.00;99.90
15111;DHT22;7656;51.954;7.998;2023-03-14T20:49:48;6.00;99.90
15111;DHT22;7656;51.954;7.998;2023-03-14T20:54:10;6.00;99.90
15111;DHT22;7656;51.954;7.998;2023-03-14T20:58:33;6.00;99.90
15111;DHT22;7656;51.954;7.998;2023-03-14T21:02:55;6.00;99.90
15111;DHT22;7656;51.954;7.998;2023-03-14T21:07:16;5.90;99.90
15111;DHT22;7656;51.954;7.998;2023-03-14T21:11:37;5.90;99.90
15111;DHT22;7656;51.954;7.998;2023-03-14T21:16:01;5.80;99.90
15111;DHT22;7656;51.954;7.998;2023-03-14T21:20:23;5.70;99.90
15111;DHT22;7656;51.954;7.998;2023-03-14T21:24:47;5.60;99.90
15111;DHT22;7656;51.954;7.998;2023-03-14T21:29:08;5.50;99.90
15111;DHT22;7656;51.954;7.998;2023-03-14T21:33:29;5.40;99.90
15111;DHT22;7656;51.954;7.998;2023-03-14T21:37:50;5.40;99.90
15111;DHT22;7656;51.954;7.998;2023-03-14T21:42:11;5.40;99.90
15111;DHT22;7656;51.954;7.998;2023-03-14T21:46:32;5.30;99.90
15111;DHT22;7656;51.954;7.998;2023-03-14T21:50:56;5.20;99.90
15111;DHT22;7656;51.954;7.998;2023-03-14T21:55:17;5.20;99.90
15111;DHT22;7656;51.954;7.998;2023-03-14T21:59:39;5.10;99.90
15111;DHT22;7656;51.954;7.998;2023-03-14T22:04:01;5.00;99.90
15111;DHT22;7656;51.954;7.998;2023-03-14T22:08:22;4.90;99.90
15111;DHT22;7656;51.954;7.998;2023-03-14T22:12:43;4.80;99.90
15111;DHT22;7656;51.954;7.998;2023-03-14T22:17:04;4.80;99.90
15111;DHT22;7656;51.954;7.998;2023-03-14T22:21:25;4.70;99.90
15111;DHT22;7656;51.954;7.998;2023-03-14T22:25:47;4.60;99.90
15111;DHT22;7656;51.954;7.998;2023-03-14T22:30:09;4.50;99.90
15111;DHT22;7656;51.954;7.998;2023-03-14T22:34:31;4.40;99.90
15111;DHT22;7656;51.954;7.998;2023-03-14T22:38:52;4.50;99.90
15111;DHT22;7656;51.954;7.998;2023-03-14T22:43:13;4.50;99.90
15111;DHT22;7656;51.954;7.998;2023-03-14T22:47:34;4.50;99.90
15111;DHT22;7656;51.954;7.998;2023-03-14T22:51:56;4.40;99.90
15111;DHT22;7656;51.954;7.998;2023-03-14T22:56:17;4.40;99.90
15111;DHT22;7656;51.954;7.998;2023-03-14T23:00:38;4.30;99.90
15111;DHT22;7656;51.954;7.998;2023-03-14T23:04:59;4.30;99.90
15111;DHT22;7656;51.954;7.998;2023-03-14T23:09:20;4.30;99.90
15111;DHT22;7656;51.954;7.998;2023-03-14T23:13:41;4.40;99.90
15111;DHT22;7656;51.954;7.998;2023-03-14T23:18:03;4.30;99.90
15111;DHT22;7656;51.954;7.998;2023-03-14T23:22:24;4.30;99.90
15111;DHT22;7656;51.954;7.998;2023-03-14T23:26:45;4.30;99.90
15111;DHT22;7656;51.954;7.998;2023-03-14T23:31:07;4.40;99.90
15111;DHT22;7656;51.954;7.998;2023-03-14T23:35:29;4.30;99.90
15111;DHT22;7656;51.954;7.998;2023-03-14T23:39:50;4.20;99.90
15111;DHT22;7656;51.954;7.998;2023-03-14T23:44:11;4.10;99.90
15111;DHT22;7656;51.954;7.998;2023-03-14T23:48:33;4.10;99.90
15111;DHT22;7656;51.954;7.998;2023-03-14T23:52:54;4.10;99.90
15111;DHT22;7656;51.954;7.998;2023-03-14T23:57:15;4.20;99.90
